sensor_id;sensor_type;location;lat;lon;timestamp;temperature;humidity
35305;DHT22;26433;48.034;-1.764;2023-07-22T16:04:37;22.10;55.10
35305;DHT22;26433;48.034;-1.764;2023-07-22T16:19:57;23.30;53.60
35305;DHT22;26433;48.034;-1.764;2023-07-22T16:35:15;23.10;53.60
35305;DHT22;26433;48.034;-1.764;2023-07-22T16:50:28;23.20;53.40
35305;DHT22;26433;48.034;-1.764;2023-07-22T17:05:41;23.00;53.50
35305;DHT22;26433;48.034;-1.764;2023-07-22T17:20:54;22.70;53.80
35305;DHT22;26433;48.034;-1.764;2023-07-22T17:36:07;22.70;53.90
35305;DHT22;26433;48.034;-1.764;2023-07-22T17:51:20;22.30;54.60
35305;DHT22;26433;48.034;-1.764;2023-07-22T18:06:33;22.00;55.20
35305;DHT22;26433;48.034;-1.764;2023-07-22T18:21:46;21.40;56.60
35305;DHT22;26433;48.034;-1.764;2023-07-22T18:36:59;21.50;57.20
35305;DHT22;26433;48.034;-1.764;2023-07-22T18:52:14;21.20;58.20
35305;DHT22;26433;48.034;-1.764;2023-07-22T19:02:22;21.10;58.40
35305;DHT22;26433;48.034;-1.764;2023-07-22T19:07:27;20.90;58.30
35305;DHT22;26433;48.034;-1.764;2023-07-22T19:17:34;20.70;69.90
35305;DHT22;26433;48.034;-1.764;2023-07-22T19:22:39;20.70;58.60
35305;DHT22;26433;48.034;-1.764;2023-07-22T19:37:52;20.70;59.00
35305;DHT22;26433;48.034;-1.764;2023-07-22T19:53:05;20.50;59.50
35305;DHT22;26433;48.034;-1.764;2023-07-22T20:08:19;20.40;60.40
35305;DHT22;26433;48.034;-1.764;2023-07-22T20:13:23;20.40;63.30
35305;DHT22;26433;48.034;-1.764;2023-07-22T20:23:32;20.40;61.30
35305;DHT22;26433;48.034;-1.764;2023-07-22T20:38:45;20.10;62.60
35305;DHT22;26433;48.034;-1.764;2023-07-22T20:43:49;20.20;71.00
35305;DHT22;26433;48.034;-1.764;2023-07-22T20:53:57;20.20;63.40
35305;DHT22;26433;48.034;-1.764;2023-07-22T21:09:13;20.10;64.10
35305;DHT22;26433;48.034;-1.764;2023-07-22T21:24:26;19.90;65.50
35305;DHT22;26433;48.034;-1.764;2023-07-22T21:39:40;19.10;78.90
35305;DHT22;26433;48.034;-1.764;2023-07-22T21:44:44;19.30;79.50
35305;DHT22;26433;48.034;-1.764;2023-07-22T21:54:54;21.00;70.00
35305;DHT22;26433;48.034;-1.764;2023-07-22T22:10:07;20.20;70.80
35305;DHT22;26433;48.034;-1.764;2023-07-22T22:25:21;19.20;72.50
35305;DHT22;26433;48.034;-1.764;2023-07-22T22:40:34;19.10;74.80
35305;DHT22;26433;48.034;-1.764;2023-07-22T22:55:50;19.20;75.10
35305;DHT22;26433;48.034;-1.764;2023-07-22T23:11:06;19.30;75.00
35305;DHT22;26433;48.034;-1.764;2023-07-22T23:21:15;19.30;75.60
35305;DHT22;26433;48.034;-1.764;2023-07-22T23:26:20;19.30;75.90
35305;DHT22;26433;48.034;-1.764;2023-07-22T23:36:28;19.40;76.00
35305;DHT22;26433;48.034;-1.764;2023-07-22T23:41:33;19.40;76.10
35305;DHT22;26433;48.034;-1.764;2023-07-22T23:46:37;19.00;86.20
35305;DHT22;26433;48.034;-1.764;2023-07-22T23:56:46;19.70;86.70
